Time;durP1;ratioP1;P1;durP2;ratioP2;P2;SDS_P1;SDS_P2;PMS_P1;PMS_P2;Temp;Humidity;BMP_temperature;BMP_pressure;BME280_temperature;BME280_humidity;BME280_pressure;Samples;Min_cycle;Max_cycle;Signal;HPM_P1;HPM_P2
2021/01/06 00:01:32;;;;;;;;;;;;;;;;;;5058292;28;20346;-60
2021/01/06 00:03:58;;;;;;;;;;;;;;;;;;5076404;28;19925;-58
2021/01/06 00:06:24;;;;;;;;;;;;;;;;;;5076226;28;19927;-59
2021/01/06 00:08:50;;;;;;;;;;;;;;;;;;5058020;28;20310;-60
2021/01/06 00:11:17;;;;;;;;;;;;;;;;;;5075920;28;19924;-60
2021/01/06 00:13:43;;;;;;;;;;;;;;;;;;5075944;28;19934;-60
2021/01/06 00:16:09;;;;;;;;;;;;;;;;;;5075936;28;19922;-60
2021/01/06 00:18:35;;;;;;;;;;;;;;;;;;5075846;28;19962;-59
2021/01/06 00:21:01;;;;;;;;;;;;;;;;;;5075748;28;20029;-60
2021/01/06 00:23:27;;;;;;;;;;;;;;;;;;5075959;28;19912;-59
2021/01/06 00:25:53;;;;;;;;;;;;;;;;;;5075997;28;20306;-60
2021/01/06 00:28:19;;;;;;;;;;;;;;;;;;5075697;28;19925;-60
2021/01/06 00:30:45;;;;;;;;;;;;;;;;;;5075620;28;20036;-60
2021/01/06 00:33:11;;;;;;;;;;;;;;;;;;5075393;28;20434;-60
2021/01/06 00:35:37;;;;;;;;;;;;;;;;;;5075904;28;19981;-60
2021/01/06 00:38:03;;;;;;;;;;;;;;;;;;5075730;28;19930;-59
2021/01/06 00:40:29;;;;;;;;;;;;;;;;;;5075461;28;19978;-60
2021/01/06 00:42:55;;;;;;;;;;;;;;;;;;5075514;28;19922;-60
2021/01/06 00:45:21;;;;;;;;;;;;;;;;;;5075421;28;19920;-60
2021/01/06 00:47:47;;;;;;;;;;;;;;;;;;5075564;28;19923;-60
2021/01/06 00:50:13;;;;;;;;;;;;;;;;;;5075468;28;19922;-60
2021/01/06 00:52:39;;;;;;;;;;;;;;;;;;5075366;28;19984;-60
2021/01/06 00:55:05;;;;;;;;;;;;;;;;;;5075352;28;20375;-60
2021/01/06 00:57:31;;;;;;;;;;;;;;;;;;5084691;28;19958;-59
2021/01/06 00:59:57;;;;;;;;;;;;;;;;;;5095296;28;19974;-59
2021/01/06 01:02:23;;;;;;;;;;;;;;;;;;5095565;28;19986;-60
2021/01/06 01:04:49;;;;;;;;;;;;;;;;;;5095241;28;19927;-59
2021/01/06 01:07:15;;;;;;;;;;;;;;;;;;5095511;28;19908;-59
2021/01/06 01:09:41;;;;;;;;;;;;;;;;;;5095479;28;20027;-60
2021/01/06 01:12:07;;;;;;;;;;;;;;;;;;5092417;28;19946;-59
2021/01/06 01:14:33;;;;;;;;;;;;;;;;;;5084774;28;20386;-59
2021/01/06 01:17:01;;;;;;;;;;;;;;;;;;5082744;28;19931;-59
2021/01/06 01:19:27;;;;;;;;;;;;;;;;;;5074756;28;19925;-59
2021/01/06 01:21:53;;;;;;;;;;;;;;;;;;5074645;28;20019;-59
2021/01/06 01:24:19;;;;;;;;;;;;;;;;;;5074976;28;19908;-60
2021/01/06 01:26:45;;;;;;;;;;;;;;;;;;5074569;28;19922;-59
2021/01/06 01:29:10;;;;;;;;;;;;;;;;;;5074306;28;19925;-59
2021/01/06 01:31:36;;;;;;;;;;;;;;;;;;5077367;28;19928;-60
2021/01/06 01:34:02;;;;;;;;;;;;;;;;;;5083321;28;20395;-59
2021/01/06 01:36:28;;;;;;;;;;;;;;;;;;5078848;28;19984;-60
2021/01/06 01:38:54;;;;;;;;;;;;;;;;;;5074274;28;19968;-60
2021/01/06 01:41:20;;;;;;;;;;;;;;;;;;5074505;28;19924;-60
2021/01/06 01:43:46;;;;;;;;;;;;;;;;;;5074137;28;19930;-59
2021/01/06 01:46:12;;;;;;;;;;;;;;;;;;5074239;28;19951;-60
2021/01/06 01:48:38;;;;;;;;;;;;;;;;;;5074087;28;19927;-59
2021/01/06 01:51:04;;;;;;;;;;;;;;;;;;5074473;28;19930;-60
2021/01/06 01:53:30;;;;;;;;;;;;;;;;;;5073910;28;19988;-60
2021/01/06 01:55:56;;;;;;;;;;;;;;;;;;5074044;28;20026;-59
2021/01/06 01:58:22;;;;;;;;;;;;;;;;;;5073860;28;19960;-59
2021/01/06 02:00:48;;;;;;;;;;;;;;;;;;5073974;28;20437;-59
2021/01/06 02:03:14;;;;;;;;;;;;;;;;;;5073367;28;19931;-60
2021/01/06 02:05:40;;;;;;;;;;;;;;;;;;5080137;28;19925;-58
2021/01/06 02:08:08;;;;;;;;;;;;;;;;;;5084743;28;19933;-59
2021/01/06 02:10:34;;;;;;;;;;;;;;;;;;5075970;28;19958;-59
2021/01/06 02:13:00;;;;;;;;;;;;;;;;;;5094211;28;19959;-59
2021/01/06 02:15:26;;;;;;;;;;;;;;;;;;5093858;28;19924;-60
2021/01/06 02:17:52;;;;;;;;;;;;;;;;;;5094015;28;20298;-60
2021/01/06 02:20:18;;;;;;;;;;;;;;;;;;5093988;28;19920;-59
2021/01/06 02:22:44;;;;;;;;;;;;;;;;;;5093956;28;20353;-60
2021/01/06 02:25:10;;;;;;;;;;;;;;;;;;5093603;28;19927;-60
2021/01/06 02:27:36;;;;;;;;;;;;;;;;;;5093976;28;19965;-59
2021/01/06 02:30:02;;;;;;;;;;;;;;;;;;5093726;28;19929;-59
2021/01/06 02:32:28;;;;;;;;;;;;;;;;;;5093713;28;19953;-60
2021/01/06 02:34:54;;;;;;;;;;;;;;;;;;5093729;28;19964;-60
2021/01/06 02:37:20;;;;;;;;;;;;;;;;;;5094012;28;19930;-60
2021/01/06 02:39:46;;;;;;;;;;;;;;;;;;5093692;28;19972;-60
2021/01/06 02:42:12;;;;;;;;;;;;;;;;;;5094072;28;19926;-60
2021/01/06 02:44:37;;;;;;;;;;;;;;;;;;5093647;28;20403;-59
2021/01/06 02:47:05;;;;;;;;;;;;;;;;;;5093604;28;19930;-60
2021/01/06 02:49:33;;;;;;;;;;;;;;;;;;5093569;28;19926;-59
2021/01/06 02:51:58;;;;;;;;;;;;;;;;;;5093355;28;20407;-59
2021/01/06 02:54:24;;;;;;;;;;;;;;;;;;5093655;28;19929;-59
2021/01/06 02:56:50;;;;;;;;;;;;;;;;;;5093759;28;19919;-59
2021/01/06 02:59:16;;;;;;;;;;;;;;;;;;5093235;28;20352;-60
2021/01/06 03:01:42;;;;;;;;;;;;;;;;;;5094185;28;19924;-60
2021/01/06 03:04:08;;;;;;;;;;;;;;;;;;5093839;28;19924;-60
2021/01/06 03:06:34;;;;;;;;;;;;;;;;;;5093694;28;19923;-60
2021/01/06 03:09:00;;;;;;;;;;;;;;;;;;5093383;28;20278;-59
2021/01/06 03:11:26;;;;;;;;;;;;;;;;;;5093315;28;19925;-59
2021/01/06 03:13:52;;;;;;;;;;;;;;;;;;5093979;28;19973;-59
2021/01/06 03:16:18;;;;;;;;;;;;;;;;;;5097444;28;20381;-59
2021/01/06 03:18:44;;;;;;;;;;;;;;;;;;5097324;28;19924;-59
2021/01/06 03:21:10;;;;;;;;;;;;;;;;;;5097455;28;19953;-59
2021/01/06 03:23:36;;;;;;;;;;;;;;;;;;5097547;28;19940;-60
2021/01/06 03:26:02;;;;;;;;;;;;;;;;;;5097110;28;19992;-60
2021/01/06 03:28:28;;;;;;;;;;;;;;;;;;5097156;28;19926;-59
2021/01/06 03:30:54;;;;;;;;;;;;;;;;;;5096939;28;19930;-59
2021/01/06 03:33:20;;;;;;;;;;;;;;;;;;5097205;28;20000;-59
2021/01/06 03:35:46;;;;;;;;;;;;;;;;;;5096885;28;20388;-60
2021/01/06 03:38:12;;;;;;;;;;;;;;;;;;5097063;28;19973;-59
2021/01/06 03:40:38;;;;;;;;;;;;;;;;;;5096912;28;19927;-59
2021/01/06 03:43:04;;;;;;;;;;;;;;;;;;5096838;28;19971;-58
2021/01/06 03:45:30;;;;;;;;;;;;;;;;;;5097014;28;19923;-59
2021/01/06 03:47:56;;;;;;;;;;;;;;;;;;5096761;28;20377;-59
2021/01/06 03:50:22;;;;;;;;;;;;;;;;;;5096894;28;19927;-60
2021/01/06 03:52:48;;;;;;;;;;;;;;;;;;5096693;28;19969;-60
2021/01/06 03:55:14;;;;;;;;;;;;;;;;;;5096465;28;19933;-60
2021/01/06 03:57:40;;;;;;;;;;;;;;;;;;5096515;28;19963;-59
2021/01/06 04:00:06;;;;;;;;;;;;;;;;;;5096497;28;19925;-59
2021/01/06 04:02:32;;;;;;;;;;;;;;;;;;5096520;28;19915;-59
2021/01/06 04:04:58;;;;;;;;;;;;;;;;;;5096732;28;19912;-60
2021/01/06 04:07:24;;;;;;;;;;;;;;;;;;5096428;28;19967;-60
2021/01/06 04:09:51;;;;;;;;;;;;;;;;;;5096356;28;19925;-59
2021/01/06 04:12:17;;;;;;;;;;;;;;;;;;5096204;28;20004;-60
2021/01/06 04:14:43;;;;;;;;;;;;;;;;;;5096191;28;20019;-60
2021/01/06 04:17:09;;;;;;;;;;;;;;;;;;5096095;28;19993;-60
2021/01/06 04:19:34;;;;;;;;;;;;;;;;;;5096500;28;20366;-59
2021/01/06 04:22:00;;;;;;;;;;;;;;;;;;5096244;28;19922;-59
2021/01/06 04:24:26;;;;;;;;;;;;;;;;;;5095695;28;19946;-59
2021/01/06 04:26:52;;;;;;;;;;;;;;;;;;5095773;28;19954;-59
2021/01/06 04:29:18;;;;;;;;;;;;;;;;;;5096211;28;20327;-60
2021/01/06 04:31:44;;;;;;;;;;;;;;;;;;5095874;28;19917;-60
2021/01/06 04:34:10;;;;;;;;;;;;;;;;;;5077680;28;19925;-59
2021/01/06 04:36:36;;;;;;;;;;;;;;;;;;5095745;28;19914;-59
2021/01/06 04:39:02;;;;;;;;;;;;;;;;;;5096117;28;19926;-60
2021/01/06 04:41:28;;;;;;;;;;;;;;;;;;5095812;28;20413;-60
2021/01/06 04:43:54;;;;;;;;;;;;;;;;;;5095926;28;19924;-59
2021/01/06 04:46:20;;;;;;;;;;;;;;;;;;5095475;28;20367;-60
2021/01/06 04:48:46;;;;;;;;;;;;;;;;;;5095606;28;19928;-60
2021/01/06 04:51:12;;;;;;;;;;;;;;;;;;5095550;28;19935;-60
2021/01/06 04:53:38;;;;;;;;;;;;;;;;;;5095453;28;20324;-60
2021/01/06 04:56:04;;;;;;;;;;;;;;;;;;5095689;28;20377;-59
2021/01/06 04:58:30;;;;;;;;;;;;;;;;;;5095240;28;19965;-60
2021/01/06 05:00:56;;;;;;;;;;;;;;;;;;5095349;28;19914;-60
2021/01/06 05:03:22;;;;;;;;;;;;;;;;;;5095220;28;19925;-60
2021/01/06 05:05:48;;;;;;;;;;;;;;;;;;5095412;28;19919;-60
2021/01/06 05:08:14;;;;;;;;;;;;;;;;;;5095551;28;19927;-59
2021/01/06 05:10:40;;;;;;;;;;;;;;;;;;5095205;28;20259;-59
2021/01/06 05:13:06;;;;;;;;;;;;;;;;;;5094953;28;19948;-60
2021/01/06 05:15:32;;;;;;;;;;;;;;;;;;5095537;28;19916;-59
2021/01/06 05:17:58;;;;;;;;;;;;;;;;;;5095231;28;20386;-59
2021/01/06 05:20:24;;;;;;;;;;;;;;;;;;5094969;28;19953;-59
2021/01/06 05:22:50;;;;;;;;;;;;;;;;;;5095072;28;19944;-59
2021/01/06 05:25:16;;;;;;;;;;;;;;;;;;5094879;28;20443;-59
2021/01/06 05:27:42;;;;;;;;;;;;;;;;;;5094781;28;20014;-60
2021/01/06 05:30:08;;;;;;;;;;;;;;;;;;5095071;28;19969;-59
2021/01/06 05:32:34;;;;;;;;;;;;;;;;;;5094656;28;20048;-59
2021/01/06 05:35:00;;;;;;;;;;;;;;;;;;5094967;28;19931;-59
2021/01/06 05:37:26;;;;;;;;;;;;;;;;;;5094110;28;19927;-59
2021/01/06 05:39:52;;;;;;;;;;;;;;;;;;5094541;28;19926;-59
2021/01/06 05:42:18;;;;;;;;;;;;;;;;;;5094709;28;19929;-59
2021/01/06 05:44:44;;;;;;;;;;;;;;;;;;5094725;28;19932;-59
2021/01/06 05:47:10;;;;;;;;;;;;;;;;;;5094406;28;19961;-59
2021/01/06 05:49:36;;;;;;;;;;;;;;;;;;5094768;28;19976;-60
2021/01/06 05:52:02;;;;;;;;;;;;;;;;;;5094600;28;19959;-59
2021/01/06 05:54:28;;;;;;;;;;;;;;;;;;5094308;28;19921;-60
2021/01/06 05:56:54;;;;;;;;;;;;;;;;;;5094111;28;19926;-60
2021/01/06 05:59:20;;;;;;;;;;;;;;;;;;5094296;28;19929;-59
2021/01/06 06:01:46;;;;;;;;;;;;;;;;;;5094312;28;20292;-60
2021/01/06 06:04:12;;;;;;;;;;;;;;;;;;5094361;28;19931;-59
2021/01/06 06:06:38;;;;;;;;;;;;;;;;;;5094456;28;19925;-59
2021/01/06 06:09:04;;;;;;;;;;;;;;;;;;5094048;28;20412;-59
2021/01/06 06:11:30;;;;;;;;;;;;;;;;;;5094176;28;20006;-60
2021/01/06 06:13:56;;;;;;;;;;;;;;;;;;5094107;28;20399;-60
2021/01/06 06:16:22;;;;;;;;;;;;;;;;;;5094310;28;19920;-60
2021/01/06 06:18:48;;;;;;;;;;;;;;;;;;5093838;28;20279;-60
2021/01/06 06:21:14;;;;;;;;;;;;;;;;;;5094585;28;19928;-60
2021/01/06 06:23:40;;;;;;;;;;;;;;;;;;5075630;28;20426;-60
2021/01/06 06:26:06;;;;;;;;;;;;;;;;;;5093946;28;19920;-59
2021/01/06 06:28:32;;;;;;;;;;;;;;;;;;5093805;28;19914;-60
2021/01/06 06:30:58;;;;;;;;;;;;;;;;;;5093815;28;19933;-59
2021/01/06 06:33:24;;;;;;;;;;;;;;;;;;5075589;28;19999;-60
2021/01/06 06:35:50;;;;;;;;;;;;;;;;;;5094077;28;19924;-60
2021/01/06 06:38:16;;;;;;;;;;;;;;;;;;5094025;28;19968;-60
2021/01/06 06:40:42;;;;;;;;;;;;;;;;;;5093803;28;19924;-60
2021/01/06 06:43:08;;;;;;;;;;;;;;;;;;5093784;28;19918;-59
2021/01/06 06:45:34;;;;;;;;;;;;;;;;;;5093704;28;19922;-60
2021/01/06 06:48:00;;;;;;;;;;;;;;;;;;5094792;28;19930;-60
2021/01/06 06:50:26;;;;;;;;;;;;;;;;;;5097839;28;19922;-60
2021/01/06 06:52:52;;;;;;;;;;;;;;;;;;5098020;28;19958;-60
2021/01/06 06:55:18;;;;;;;;;;;;;;;;;;5098038;28;19923;-60
2021/01/06 06:57:44;;;;;;;;;;;;;;;;;;5097496;28;20379;-60
2021/01/06 07:00:10;;;;;;;;;;;;;;;;;;5097699;28;19927;-60
2021/01/06 07:02:36;;;;;;;;;;;;;;;;;;5097837;28;19923;-60
2021/01/06 07:05:02;;;;;;;;;;;;;;;;;;5097636;28;20279;-60
2021/01/06 07:07:28;;;;;;;;;;;;;;;;;;5095606;28;19924;-60
2021/01/06 07:09:54;;;;;;;;;;;;;;;;;;5097466;28;19923;-60
2021/01/06 07:12:20;;;;;;;;;;;;;;;;;;5097328;28;20060;-60
2021/01/06 07:14:46;;;;;;;;;;;;;;;;;;5097503;28;19961;-60
2021/01/06 07:17:12;;;;;;;;;;;;;;;;;;5097491;28;19930;-60
2021/01/06 07:19:38;;;;;;;;;;;;;;;;;;5097266;28;19990;-61
2021/01/06 07:22:03;;;;;;;;;;;;;;;;;;5097556;28;19928;-61
2021/01/06 07:24:29;;;;;;;;;;;;;;;;;;5097060;28;19939;-60
2021/01/06 07:26:55;;;;;;;;;;;;;;;;;;5097178;28;19968;-60
2021/01/06 07:29:23;;;;;;;;;;;;;;;;;;5097285;28;19951;-60
2021/01/06 07:31:52;;;;;;;;;;;;;;;;;;5097532;28;19948;-60
2021/01/06 07:34:18;;;;;;;;;;;;;;;;;;5078804;28;19924;-60
2021/01/06 07:36:44;;;;;;;;;;;;;;;;;;5097363;28;19978;-61
2021/01/06 07:39:10;;;;;;;;;;;;;;;;;;5096882;28;19927;-60
2021/01/06 07:41:36;;;;;;;;;;;;;;;;;;5078761;28;19931;-60
2021/01/06 07:44:02;;;;;;;;;;;;;;;;;;5097270;28;20014;-60
2021/01/06 07:46:28;;;;;;;;;;;;;;;;;;5096896;28;20287;-60
2021/01/06 07:48:54;;;;;;;;;;;;;;;;;;5097058;28;19926;-60
2021/01/06 07:51:19;;;;;;;;;;;;;;;;;;5096984;28;19916;-60
2021/01/06 07:53:45;;;;;;;;;;;;;;;;;;5096519;28;19956;-60
2021/01/06 07:56:11;;;;;;;;;;;;;;;;;;5096746;28;19919;-60
2021/01/06 07:58:40;;;;;;;;;;;;;;;;;;5096548;28;20395;-60
2021/01/06 08:01:05;;;;;;;;;;;;;;;;;;5096040;28;20253;-61
2021/01/06 08:03:32;;;;;;;;;;;;;;;;;;5096500;28;19924;-61
2021/01/06 08:05:58;;;;;;;;;;;;;;;;;;5096512;28;19925;-60
2021/01/06 08:08:24;;;;;;;;;;;;;;;;;;5096768;28;19926;-60
2021/01/06 08:10:50;;;;;;;;;;;;;;;;;;5096583;28;19926;-60
2021/01/06 08:13:16;;;;;;;;;;;;;;;;;;5096295;28;20276;-59
2021/01/06 08:15:42;;;;;;;;;;;;;;;;;;5096443;28;20002;-60
2021/01/06 08:18:08;;;;;;;;;;;;;;;;;;5096193;28;20242;-60
2021/01/06 08:20:34;;;;;;;;;;;;;;;;;;5096112;28;19927;-60
2021/01/06 08:22:59;;;;;;;;;;;;;;;;;;5096036;28;19948;-59
2021/01/06 08:25:25;;;;;;;;;;;;;;;;;;5096107;28;19926;-60
2021/01/06 08:27:51;;;;;;;;;;;;;;;;;;5096092;28;19934;-60
2021/01/06 08:30:17;;;;;;;;;;;;;;;;;;5095892;28;20292;-60
2021/01/06 08:32:43;;;;;;;;;;;;;;;;;;5096185;28;19963;-60
2021/01/06 08:35:09;;;;;;;;;;;;;;;;;;5095882;28;19962;-61
2021/01/06 08:37:35;;;;;;;;;;;;;;;;;;5095666;28;19924;-62
2021/01/06 08:40:02;;;;;;;;;;;;;;;;;;5096152;28;19924;-65
2021/01/06 08:42:28;;;;;;;;;;;;;;;;;;5095677;28;20451;-64
2021/01/06 08:44:54;;;;;;;;;;;;;;;;;;5095792;28;19968;-65
2021/01/06 08:47:20;;;;;;;;;;;;;;;;;;5096143;28;19969;-64
2021/01/06 08:49:48;;;;;;;;;;;;;;;;;;5095574;28;19908;-65
2021/01/06 08:52:14;;;;;;;;;;;;;;;;;;5095383;28;20417;-65
2021/01/06 08:54:40;;;;;;;;;;;;;;;;;;5095779;28;19924;-65
2021/01/06 08:57:06;;;;;;;;;;;;;;;;;;5095228;28;20290;-65
2021/01/06 08:59:32;;;;;;;;;;;;;;;;;;5095746;28;19976;-65
2021/01/06 09:01:58;;;;;;;;;;;;;;;;;;5095330;28;20279;-65
2021/01/06 09:04:24;;;;;;;;;;;;;;;;;;5095672;28;19952;-65
2021/01/06 09:06:50;;;;;;;;;;;;;;;;;;5095134;28;20017;-64
2021/01/06 09:09:16;;;;;;;;;;;;;;;;;;5095315;28;19942;-65
2021/01/06 09:11:42;;;;;;;;;;;;;;;;;;5094013;28;20436;-64
2021/01/06 09:14:08;;;;;;;;;;;;;;;;;;5095172;28;19923;-65
2021/01/06 09:16:34;;;;;;;;;;;;;;;;;;5095072;28;19929;-65
2021/01/06 09:19:00;;;;;;;;;;;;;;;;;;5095045;28;19924;-65
2021/01/06 09:21:29;;;;;;;;;;;;;;;;;;5091179;28;19912;-64
2021/01/06 09:23:55;;;;;;;;;;;;;;;;;;5095199;28;19954;-64
2021/01/06 09:26:21;;;;;;;;;;;;;;;;;;5094874;28;20013;-65
2021/01/06 09:28:47;;;;;;;;;;;;;;;;;;5095003;28;19964;-60
2021/01/06 09:31:13;;;;;;;;;;;;;;;;;;5095095;28;19979;-60
2021/01/06 09:33:39;;;;;;;;;;;;;;;;;;5094709;28;20289;-64
2021/01/06 09:36:05;;;;;;;;;;;;;;;;;;5094486;28;19919;-45
2021/01/06 09:38:31;;;;;;;;;;;;;;;;;;5094657;28;19927;-49
2021/01/06 09:41:02;;;;;;;;;;;;;;;;;;5094982;28;19924;-45
2021/01/06 09:43:28;;;;;;;;;;;;;;;;;;5094562;28;19927;-52
2021/01/06 09:45:54;;;;;;;;;;;;;;;;;;5094494;28;19933;-46
2021/01/06 09:48:20;;;;;;;;;;;;;;;;;;5094790;28;19961;-48
2021/01/06 09:50:46;;;;;;;;;;;;;;;;;;5094443;28;19969;-49
2021/01/06 09:53:12;;;;;;;;;;;;;;;;;;5091132;28;19958;-52
2021/01/06 09:55:37;;;;;;;;;;;;;;;;;;5085340;28;19928;-45
2021/01/06 09:58:03;;;;;;;;;;;;;;;;;;5087922;28;19994;-54
2021/01/06 10:00:29;;;;;;;;;;;;;;;;;;5087078;28;20381;-49
2021/01/06 10:02:55;;;;;;;;;;;;;;;;;;5090628;28;19972;-44
2021/01/06 10:05:21;;;;;;;;;;;;;;;;;;5085310;28;19913;-48
2021/01/06 10:07:47;;;;;;;;;;;;;;;;;;5082358;28;19921;-45
2021/01/06 10:10:13;;;;;;;;;;;;;;;;;;5092896;28;19931;-45
2021/01/06 10:12:39;;;;;;;;;;;;;;;;;;5089785;28;19946;-49
2021/01/06 10:15:05;;;;;;;;;;;;;;;;;;5081112;28;19909;-48
2021/01/06 10:17:31;;;;;;;;;;;;;;;;;;5090231;28;20077;-45
2021/01/06 10:19:57;;;;;;;;;;;;;;;;;;5092686;28;19936;-53
2021/01/06 10:22:24;;;;;;;;;;;;;;;;;;5093292;28;19933;-45
2021/01/06 10:24:50;;;;;;;;;;;;;;;;;;5093106;28;20303;-49
2021/01/06 10:27:16;;;;;;;;;;;;;;;;;;5094076;28;20043;-47
2021/01/06 10:29:42;;;;;;;;;;;;;;;;;;5093962;28;20283;-58
2021/01/06 10:32:08;;;;;;;;;;;;;;;;;;5093843;28;19950;-48
2021/01/06 10:34:36;;;;;;;;;;;;;;;;;;5093159;28;21580;-53
2021/01/06 10:37:02;;;;;;;;;;;;;;;;;;5094054;28;19927;-53
2021/01/06 10:39:28;;;;;;;;;;;;;;;;;;5093692;28;19923;-53
2021/01/06 10:41:54;;;;;;;;;;;;;;;;;;5093813;28;19966;-52
2021/01/06 10:44:20;;;;;;;;;;;;;;;;;;5093584;28;19909;-47
2021/01/06 10:46:46;;;;;;;;;;;;;;;;;;5093164;28;19948;-51
2021/01/06 10:49:12;;;;;;;;;;;;;;;;;;5093869;28;19923;-51
2021/01/06 10:51:38;;;;;;;;;;;;;;;;;;5093492;28;20449;-53
2021/01/06 10:54:03;;;;;;;;;;;;;;;;;;5093798;28;19930;-50
2021/01/06 10:56:29;;;;;;;;;;;;;;;;;;5093605;28;20303;-48
2021/01/06 10:58:57;;;;;;;;;;;;;;;;;;5093146;28;20012;-51
2021/01/06 11:01:23;;;;;;;;;;;;;;;;;;5093455;28;19954;-52
2021/01/06 11:03:50;;;;;;;;;;;;;;;;;;5093782;28;20011;-52
2021/01/06 11:06:16;;;;;;;;;;;;;;;;;;5093867;28;20076;-55
2021/01/06 11:08:42;;;;;;;;;;;;;;;;;;5093340;28;20403;-53
2021/01/06 11:11:08;;;;;;;;;;;;;;;;;;5093603;28;19935;-55
2021/01/06 11:13:34;;;;;;;;;;;;;;;;;;5093342;28;19959;-49
2021/01/06 11:16:00;;;;;;;;;;;;;;;;;;5093567;28;20003;-54
2021/01/06 11:18:26;;;;;;;;;;;;;;;;;;5093702;28;19983;-54
2021/01/06 11:20:51;;;;;;;;;;;;;;;;;;5093731;28;19930;-50
2021/01/06 11:23:17;;;;;;;;;;;;;;;;;;5093290;28;20331;-48
2021/01/06 11:25:44;;;;;;;;;;;;;;;;;;5093461;28;19981;-50
2021/01/06 11:28:10;;;;;;;;;;;;;;;;;;5093428;28;20375;-52
2021/01/06 11:30:36;;;;;;;;;;;;;;;;;;5093775;28;19945;-50
2021/01/06 11:33:02;;;;;;;;;;;;;;;;;;5093368;28;19962;-48
2021/01/06 11:35:29;;;;;;;;;;;;;;;;;;5094843;28;19925;-52
2021/01/06 11:37:55;;;;;;;;;;;;;;;;;;5097085;28;19922;-53
2021/01/06 11:40:21;;;;;;;;;;;;;;;;;;5096872;28;20308;-46
2021/01/06 11:42:47;;;;;;;;;;;;;;;;;;5096884;28;20024;-53
2021/01/06 11:45:13;;;;;;;;;;;;;;;;;;5096678;28;19908;-47
2021/01/06 11:47:39;;;;;;;;;;;;;;;;;;5096810;28;19929;-52
2021/01/06 11:50:05;;;;;;;;;;;;;;;;;;5096993;28;20022;-48
2021/01/06 11:52:31;;;;;;;;;;;;;;;;;;5095376;28;20014;-52
2021/01/06 11:54:57;;;;;;;;;;;;;;;;;;5096612;28;19929;-53
2021/01/06 11:57:23;;;;;;;;;;;;;;;;;;5096580;28;19959;-54
2021/01/06 11:59:49;;;;;;;;;;;;;;;;;;5096594;28;20312;-51
2021/01/06 12:02:15;;;;;;;;;;;;;;;;;;5096524;28;19908;-50
2021/01/06 12:04:41;;;;;;;;;;;;;;;;;;5095592;28;19950;-53
2021/01/06 12:07:07;;;;;;;;;;;;;;;;;;5096746;28;19909;-51
2021/01/06 12:09:33;;;;;;;;;;;;;;;;;;5096440;28;20391;-54
2021/01/06 12:11:59;;;;;;;;;;;;;;;;;;5096293;28;20038;-51
2021/01/06 12:14:25;;;;;;;;;;;;;;;;;;5087266;28;20274;-50
2021/01/06 12:16:51;;;;;;;;;;;;;;;;;;5076092;28;19925;-45
2021/01/06 12:19:17;;;;;;;;;;;;;;;;;;5077393;28;19948;-50
2021/01/06 12:21:43;;;;;;;;;;;;;;;;;;5080187;28;19967;-56
2021/01/06 12:24:09;;;;;;;;;;;;;;;;;;5075849;28;20026;-49
2021/01/06 12:26:35;;;;;;;;;;;;;;;;;;5082966;28;20284;-54
2021/01/06 12:29:01;;;;;;;;;;;;;;;;;;5094168;28;19912;-52
2021/01/06 12:31:27;;;;;;;;;;;;;;;;;;5094188;28;19923;-51
2021/01/06 12:33:53;;;;;;;;;;;;;;;;;;5094321;28;19948;-49
2021/01/06 12:36:19;;;;;;;;;;;;;;;;;;5093959;28;19914;-49
2021/01/06 12:38:45;;;;;;;;;;;;;;;;;;5084660;28;19921;-49
2021/01/06 12:41:12;;;;;;;;;;;;;;;;;;5085598;28;20021;-47
2021/01/06 12:43:38;;;;;;;;;;;;;;;;;;5075672;28;20015;-50
2021/01/06 12:46:04;;;;;;;;;;;;;;;;;;5080275;28;20014;-48
2021/01/06 12:48:31;;;;;;;;;;;;;;;;;;5080605;28;20368;-50
2021/01/06 12:50:57;;;;;;;;;;;;;;;;;;5074997;28;20297;-55
2021/01/06 12:53:23;;;;;;;;;;;;;;;;;;5076850;28;19967;-53
2021/01/06 12:55:49;;;;;;;;;;;;;;;;;;5093476;28;20387;-50
2021/01/06 12:58:15;;;;;;;;;;;;;;;;;;5092416;28;19961;-46
2021/01/06 13:00:41;;;;;;;;;;;;;;;;;;5093738;28;19976;-51
2021/01/06 13:03:07;;;;;;;;;;;;;;;;;;5091717;28;20380;-51
2021/01/06 13:05:33;;;;;;;;;;;;;;;;;;5092590;28;19916;-51
2021/01/06 13:08:00;;;;;;;;;;;;;;;;;;5090848;28;20063;-50
2021/01/06 13:10:26;;;;;;;;;;;;;;;;;;5083093;28;19912;-49
2021/01/06 13:12:53;;;;;;;;;;;;;;;;;;5075128;28;19971;-50
2021/01/06 13:15:19;;;;;;;;;;;;;;;;;;5087939;28;20340;-52
2021/01/06 13:17:45;;;;;;;;;;;;;;;;;;5094347;28;19954;-53
2021/01/06 13:20:12;;;;;;;;;;;;;;;;;;5093784;28;20371;-52
2021/01/06 13:22:38;;;;;;;;;;;;;;;;;;5088684;28;20002;-50
2021/01/06 13:25:04;;;;;;;;;;;;;;;;;;5074079;28;20363;-49
2021/01/06 13:27:30;;;;;;;;;;;;;;;;;;5073730;28;20089;-54
2021/01/06 13:29:56;;;;;;;;;;;;;;;;;;5073276;28;20426;-47
2021/01/06 13:32:22;;;;;;;;;;;;;;;;;;5076354;28;19966;-51
2021/01/06 13:34:48;;;;;;;;;;;;;;;;;;5082132;28;20002;-48
2021/01/06 13:37:14;;;;;;;;;;;;;;;;;;5082331;28;19931;-51
2021/01/06 13:39:40;;;;;;;;;;;;;;;;;;5073778;28;20339;-53
2021/01/06 13:42:07;;;;;;;;;;;;;;;;;;5073237;28;19975;-45
2021/01/06 13:44:33;;;;;;;;;;;;;;;;;;5072962;28;20013;-46
2021/01/06 13:46:59;;;;;;;;;;;;;;;;;;5083596;28;20014;-47
2021/01/06 13:49:25;;;;;;;;;;;;;;;;;;5082035;28;19929;-50
2021/01/06 13:51:51;;;;;;;;;;;;;;;;;;5082804;28;19927;-52
2021/01/06 13:54:17;;;;;;;;;;;;;;;;;;5084061;28;19925;-50
2021/01/06 13:56:43;;;;;;;;;;;;;;;;;;5074144;28;19909;-53
2021/01/06 13:59:09;;;;;;;;;;;;;;;;;;5073278;28;20055;-54
2021/01/06 14:01:35;;;;;;;;;;;;;;;;;;5073690;28;20039;-48
2021/01/06 14:04:01;;;;;;;;;;;;;;;;;;5073576;28;19929;-49
2021/01/06 14:06:27;;;;;;;;;;;;;;;;;;5073819;28;19925;-51
2021/01/06 14:08:53;;;;;;;;;;;;;;;;;;5087143;28;19936;-47
2021/01/06 14:11:19;;;;;;;;;;;;;;;;;;5093991;28;19926;-51
2021/01/06 14:13:45;;;;;;;;;;;;;;;;;;5094219;28;20306;-51
2021/01/06 14:16:11;;;;;;;;;;;;;;;;;;5094188;28;19924;-52
2021/01/06 14:18:37;;;;;;;;;;;;;;;;;;5093838;28;19928;-54
2021/01/06 14:21:03;;;;;;;;;;;;;;;;;;5093637;28;20017;-53
2021/01/06 14:23:29;;;;;;;;;;;;;;;;;;5093038;28;19982;-51
2021/01/06 14:25:55;;;;;;;;;;;;;;;;;;5093823;28;19938;-50
2021/01/06 14:28:21;;;;;;;;;;;;;;;;;;5088141;28;19942;-45
2021/01/06 14:30:47;;;;;;;;;;;;;;;;;;5092594;28;20073;-47
2021/01/06 14:33:13;;;;;;;;;;;;;;;;;;5093618;28;19948;-47
2021/01/06 14:35:39;;;;;;;;;;;;;;;;;;5093144;28;19929;-51
2021/01/06 14:38:05;;;;;;;;;;;;;;;;;;5076542;28;20007;-45
2021/01/06 14:40:31;;;;;;;;;;;;;;;;;;5079269;28;20324;-48
2021/01/06 14:42:57;;;;;;;;;;;;;;;;;;5084355;28;19932;-46
2021/01/06 14:45:27;;;;;;;;;;;;;;;;;;5093555;28;20389;-48
2021/01/06 14:47:53;;;;;;;;;;;;;;;;;;5093396;28;19955;-47
2021/01/06 14:50:19;;;;;;;;;;;;;;;;;;5093645;28;19919;-51
2021/01/06 14:52:45;;;;;;;;;;;;;;;;;;5093608;28;20415;-47
2021/01/06 14:55:11;;;;;;;;;;;;;;;;;;5093500;28;19929;-51
2021/01/06 14:57:37;;;;;;;;;;;;;;;;;;5093274;28;19955;-47
2021/01/06 15:00:03;;;;;;;;;;;;;;;;;;5093777;28;19924;-53
2021/01/06 15:02:29;;;;;;;;;;;;;;;;;;5093516;28;19928;-47
2021/01/06 15:04:55;;;;;;;;;;;;;;;;;;5093527;28;19965;-52
2021/01/06 15:07:21;;;;;;;;;;;;;;;;;;5093315;28;20367;-48
2021/01/06 15:09:47;;;;;;;;;;;;;;;;;;5095740;28;19933;-52
2021/01/06 15:12:13;;;;;;;;;;;;;;;;;;5097474;28;19956;-51
2021/01/06 15:14:39;;;;;;;;;;;;;;;;;;5097822;28;20282;-50
2021/01/06 15:17:05;;;;;;;;;;;;;;;;;;5097186;28;19922;-48
2021/01/06 15:19:31;;;;;;;;;;;;;;;;;;5097376;28;19924;-50
2021/01/06 15:21:57;;;;;;;;;;;;;;;;;;5097019;28;20019;-48
2021/01/06 15:24:23;;;;;;;;;;;;;;;;;;5097138;28;19969;-48
2021/01/06 15:26:50;;;;;;;;;;;;;;;;;;5097096;28;19978;-50
2021/01/06 15:29:16;;;;;;;;;;;;;;;;;;5096961;28;19926;-49
2021/01/06 15:31:42;;;;;;;;;;;;;;;;;;5097213;28;19924;-48
2021/01/06 15:34:08;;;;;;;;;;;;;;;;;;5096929;28;19931;-48
2021/01/06 15:36:34;;;;;;;;;;;;;;;;;;5096846;28;19927;-50
2021/01/06 15:39:00;;;;;;;;;;;;;;;;;;5096867;28;19922;-51
2021/01/06 15:41:26;;;;;;;;;;;;;;;;;;5097256;28;20325;-47
2021/01/06 15:43:52;;;;;;;;;;;;;;;;;;5096897;28;19952;-48
2021/01/06 15:46:17;;;;;;;;;;;;;;;;;;5096794;28;20371;-54
2021/01/06 15:48:43;;;;;;;;;;;;;;;;;;5096686;28;19916;-48
2021/01/06 15:51:09;;;;;;;;;;;;;;;;;;5096618;28;19962;-49
2021/01/06 15:53:35;;;;;;;;;;;;;;;;;;5094380;28;20314;-46
2021/01/06 15:56:01;;;;;;;;;;;;;;;;;;5094756;28;19970;-47
2021/01/06 15:58:27;;;;;;;;;;;;;;;;;;5094188;28;20334;-48
2021/01/06 16:00:54;;;;;;;;;;;;;;;;;;5094983;28;19938;-44
2021/01/06 16:03:20;;;;;;;;;;;;;;;;;;5094619;28;19955;-47
2021/01/06 16:05:46;;;;;;;;;;;;;;;;;;5095528;28;19929;-53
2021/01/06 16:08:12;;;;;;;;;;;;;;;;;;5095200;28;19928;-47
2021/01/06 16:10:38;;;;;;;;;;;;;;;;;;5095169;28;20082;-47
2021/01/06 16:13:04;;;;;;;;;;;;;;;;;;5095207;28;19955;-50
2021/01/06 16:15:30;;;;;;;;;;;;;;;;;;5095004;28;19931;-49
2021/01/06 16:17:56;;;;;;;;;;;;;;;;;;5094746;28;19929;-47
2021/01/06 16:20:22;;;;;;;;;;;;;;;;;;5094889;28;19930;-46
2021/01/06 16:22:48;;;;;;;;;;;;;;;;;;5094758;28;19938;-53
2021/01/06 16:25:14;;;;;;;;;;;;;;;;;;5094196;28;19929;-50
2021/01/06 16:27:40;;;;;;;;;;;;;;;;;;5086417;28;19918;-48
2021/01/06 16:30:06;;;;;;;;;;;;;;;;;;5071906;28;19969;-46
2021/01/06 16:32:32;;;;;;;;;;;;;;;;;;5072760;28;20004;-50
2021/01/06 16:34:58;;;;;;;;;;;;;;;;;;5073197;28;20388;-48
2021/01/06 16:37:25;;;;;;;;;;;;;;;;;;5073223;28;19947;-46